Time;durP1;ratioP1;P1;durP2;ratioP2;P2;SDS_P1;SDS_P2;PMS_P1;PMS_P2;Temp;Humidity;BMP_temperature;BMP_pressure;BME280_temperature;BME280_humidity;BME280_pressure;Samples;Min_cycle;Max_cycle;Signal;HPM_P1;HPM_P2
2023/06/25 00:02:27;;;;;;;11.10;8.77;;;14.50;99.90;;;;;;4956550;29;20262;-79
2023/06/25 00:04:55;;;;;;;9.57;8.57;;;14.40;99.90;;;;;;4957038;29;20211;-80
2023/06/25 00:07:23;;;;;;;9.80;8.53;;;14.40;99.90;;;;;;4939963;29;20307;-79
2023/06/25 00:09:54;;;;;;;9.57;8.57;;;14.40;99.90;;;;;;4937860;29;20240;-80
2023/06/25 00:12:24;;;;;;;11.87;8.60;;;14.30;99.90;;;;;;4937306;29;20678;-79
2023/06/25 00:14:52;;;;;;;10.27;8.80;;;14.30;99.90;;;;;;4937776;29;20287;-78
2023/06/25 00:17:21;;;;;;;10.57;8.90;;;14.30;99.90;;;;;;4937198;29;20607;-78
2023/06/25 00:19:49;;;;;;;9.27;8.30;;;14.30;99.90;;;;;;4937485;29;20304;-78
2023/06/25 00:22:17;;;;;;;11.77;9.00;;;14.30;99.90;;;;;;4937451;29;20216;-79
2023/06/25 00:24:45;;;;;;;11.50;8.57;;;14.20;99.90;;;;;;4937208;29;20658;-80
2023/06/25 00:27:14;;;;;;;9.87;8.63;;;14.20;99.90;;;;;;4937777;29;20212;-75
2023/06/25 00:29:43;;;;;;;10.43;8.80;;;14.20;99.90;;;;;;4937648;29;20268;-80
2023/06/25 00:32:15;;;;;;;10.17;8.97;;;14.20;99.90;;;;;;4937167;29;20267;-81
2023/06/25 00:34:43;;;;;;;9.70;8.67;;;14.10;99.90;;;;;;4937363;29;20212;-78
2023/06/25 00:37:17;;;;;;;9.63;8.60;;;14.10;99.90;;;;;;4937451;29;20212;-79
2023/06/25 00:39:46;;;;;;;9.50;8.23;;;14.00;99.90;;;;;;4937871;29;20200;-80
2023/06/25 00:42:14;;;;;;;10.37;9.23;;;14.00;99.90;;;;;;4936498;29;20248;-78
2023/06/25 00:44:44;;;;;;;10.03;8.97;;;13.90;99.90;;;;;;4937277;29;20239;-80
2023/06/25 00:47:14;;;;;;;10.10;8.80;;;13.90;99.90;;;;;;4937241;29;20243;-79
2023/06/25 00:49:43;;;;;;;9.10;8.20;;;13.90;99.90;;;;;;4937090;29;20582;-80
2023/06/25 00:52:11;;;;;;;9.70;8.70;;;13.80;99.90;;;;;;4936638;29;20251;-80
2023/06/25 00:54:41;;;;;;;11.63;9.00;;;13.80;99.90;;;;;;4936670;29;20291;-78
2023/06/25 00:57:10;;;;;;;9.90;8.90;;;13.80;99.90;;;;;;4936952;29;20216;-79
2023/06/25 00:59:48;;;;;;;10.80;8.90;;;13.70;99.90;;;;;;4936752;28;20264;-79
2023/06/25 01:02:21;;;;;;;9.27;8.37;;;13.70;99.90;;;;;;4936086;29;20212;-79
2023/06/25 01:04:58;;;;;;;12.03;9.30;;;13.70;99.90;;;;;;4938796;29;20264;-80
2023/06/25 01:07:27;;;;;;;10.90;9.27;;;13.60;99.90;;;;;;4937905;29;20216;-80
2023/06/25 01:09:56;;;;;;;11.07;8.77;;;13.60;99.90;;;;;;4936408;29;20224;-79
2023/06/25 01:12:25;;;;;;;9.87;8.87;;;13.50;99.90;;;;;;4936567;29;20276;-81
2023/06/25 01:14:57;;;;;;;10.87;8.80;;;13.50;99.90;;;;;;4936171;29;20232;-78
2023/06/25 01:17:26;;;;;;;10.97;9.83;;;13.50;99.90;;;;;;4936490;29;20303;-79
2023/06/25 01:19:54;;;;;;;9.57;8.57;;;13.50;99.90;;;;;;4937073;29;20204;-80
2023/06/25 01:22:29;;;;;;;10.17;8.73;;;13.50;99.90;;;;;;4937072;29;20283;-79
2023/06/25 01:24:57;;;;;;;10.60;9.50;;;13.40;99.90;;;;;;4936860;29;20220;-80
2023/06/25 01:27:26;;;;;;;10.50;9.50;;;13.40;99.90;;;;;;4936683;29;20223;-79
2023/06/25 01:29:55;;;;;;;11.60;10.40;;;13.40;99.90;;;;;;4936082;29;20216;-80
2023/06/25 01:32:23;;;;;;;10.97;9.20;;;13.40;99.90;;;;;;4957223;28;20255;-80
2023/06/25 01:34:52;;;;;;;11.07;9.97;;;13.40;99.90;;;;;;4935763;29;20212;-79
2023/06/25 01:37:20;;;;;;;11.60;9.43;;;13.40;99.90;;;;;;4935866;29;20275;-78
2023/06/25 01:39:51;;;;;;;11.23;10.13;;;13.40;99.90;;;;;;4935984;29;20219;-77
2023/06/25 01:42:20;;;;;;;11.03;10.03;;;13.40;99.90;;;;;;4935755;29;20208;-74
2023/06/25 01:44:48;;;;;;;11.67;10.47;;;13.40;99.90;;;;;;4935976;29;20695;-79
2023/06/25 01:47:16;;;;;;;11.90;10.00;;;13.30;99.90;;;;;;4936047;29;20674;-76
2023/06/25 01:49:44;;;;;;;11.43;10.23;;;13.20;99.90;;;;;;4936112;29;20259;-80
2023/06/25 01:52:12;;;;;;;11.73;10.23;;;13.20;99.90;;;;;;4935664;29;20236;-79
2023/06/25 01:54:41;;;;;;;11.63;10.50;;;13.20;99.90;;;;;;4935548;29;20806;-80
2023/06/25 01:57:10;;;;;;;14.60;11.30;;;13.10;99.90;;;;;;4934992;29;20247;-79
2023/06/25 01:59:38;;;;;;;11.80;10.53;;;13.10;99.90;;;;;;4936122;29;20216;-77
2023/06/25 02:02:06;;;;;;;11.40;10.30;;;13.10;99.90;;;;;;4935548;29;20351;-79
2023/06/25 02:04:34;;;;;;;11.97;10.80;;;13.00;99.90;;;;;;4935932;29;20213;-80
2023/06/25 02:07:03;;;;;;;13.77;11.13;;;13.00;99.90;;;;;;4935512;29;20263;-80
2023/06/25 02:09:31;;;;;;;11.97;10.57;;;12.90;99.90;;;;;;4935851;29;20267;-77
2023/06/25 02:11:59;;;;;;;13.23;10.57;;;12.90;99.90;;;;;;4935033;29;20229;-77
2023/06/25 02:14:28;;;;;;;12.33;11.13;;;12.80;99.90;;;;;;4935359;29;20208;-75
2023/06/25 02:16:56;;;;;;;10.90;9.80;;;12.80;99.90;;;;;;4935019;29;20208;-76
2023/06/25 02:19:24;;;;;;;12.43;10.93;;;12.80;99.90;;;;;;4935391;29;20216;-79
2023/06/25 02:21:53;;;;;;;11.97;10.77;;;12.80;99.90;;;;;;4935269;29;20243;-76
2023/06/25 02:24:21;;;;;;;11.87;10.33;;;12.70;99.90;;;;;;4935266;29;20753;-78
2023/06/25 02:26:49;;;;;;;12.73;10.87;;;12.70;99.90;;;;;;4937791;29;20611;-78
2023/06/25 02:29:17;;;;;;;10.67;9.57;;;12.70;99.90;;;;;;4935441;29;20209;-75
2023/06/25 02:31:46;;;;;;;11.93;10.73;;;12.70;99.90;;;;;;4971053;28;20234;-78
2023/06/25 02:34:16;;;;;;;13.83;10.83;;;12.70;99.90;;;;;;4973435;28;20668;-78
2023/06/25 02:36:44;;;;;;;12.37;11.13;;;12.70;99.90;;;;;;4950175;28;20267;-81
2023/06/25 02:39:12;;;;;;;11.87;10.63;;;12.60;99.90;;;;;;4935302;29;20212;-81
2023/06/25 02:41:40;;;;;;;12.33;11.03;;;12.60;99.90;;;;;;4935197;29;20273;-78
2023/06/25 02:44:08;;;;;;;12.83;11.20;;;12.60;99.90;;;;;;4934648;29;20208;-76
2023/06/25 02:46:36;;;;;;;12.00;10.33;;;12.50;99.90;;;;;;4934558;29;20244;-77
2023/06/25 02:49:06;;;;;;;12.23;10.63;;;12.50;99.90;;;;;;4934950;29;20576;-78
2023/06/25 02:51:34;;;;;;;11.50;10.30;;;12.50;99.90;;;;;;4935473;29;20228;-77
2023/06/25 02:54:02;;;;;;;12.00;10.23;;;12.50;99.90;;;;;;4935737;28;20236;-77
2023/06/25 02:56:30;;;;;;;12.80;10.47;;;12.50;99.90;;;;;;4935118;29;20504;-76
2023/06/25 02:58:58;;;;;;;11.33;10.23;;;12.40;99.90;;;;;;4935062;29;20212;-75
2023/06/25 03:01:26;;;;;;;11.97;9.83;;;12.40;99.90;;;;;;4935038;29;20299;-77
2023/06/25 03:03:54;;;;;;;12.73;10.17;;;12.40;99.90;;;;;;4944145;29;20222;-77
2023/06/25 03:06:24;;;;;;;11.77;10.67;;;12.40;99.90;;;;;;4956263;28;20294;-76
2023/06/25 03:08:52;;;;;;;10.97;9.87;;;12.30;99.90;;;;;;4958689;28;20208;-80
2023/06/25 03:11:20;;;;;;;11.17;9.97;;;12.30;99.90;;;;;;4956386;29;20297;-74
2023/06/25 03:13:49;;;;;;;11.30;10.10;;;12.30;99.90;;;;;;4943379;29;20272;-76
2023/06/25 03:16:17;;;;;;;12.13;10.10;;;12.30;99.90;;;;;;4945363;29;20713;-79
2023/06/25 03:18:45;;;;;;;11.40;10.30;;;12.30;99.90;;;;;;4942372;29;20216;-80
2023/06/25 03:21:13;;;;;;;12.70;10.33;;;12.20;99.90;;;;;;4934622;29;20209;-78
2023/06/25 03:23:43;;;;;;;11.33;10.13;;;12.20;99.90;;;;;;4935391;28;20218;-75
2023/06/25 03:26:11;;;;;;;14.00;10.07;;;12.20;99.90;;;;;;4934643;29;20262;-74
2023/06/25 03:28:39;;;;;;;11.43;10.07;;;12.20;99.90;;;;;;4939822;28;20203;-77
2023/06/25 03:31:07;;;;;;;10.93;9.83;;;12.20;99.90;;;;;;4934851;29;20232;-76
2023/06/25 03:33:35;;;;;;;10.37;9.23;;;12.20;99.90;;;;;;4934431;29;20212;-78
2023/06/25 03:36:04;;;;;;;11.17;10.07;;;12.20;99.90;;;;;;4935013;29;20208;-78
2023/06/25 03:38:32;;;;;;;10.20;9.10;;;12.30;99.90;;;;;;4934967;29;20243;-78
2023/06/25 03:41:01;;;;;;;10.73;9.70;;;12.30;99.90;;;;;;4934312;29;20691;-75
2023/06/25 03:43:29;;;;;;;12.57;10.43;;;12.30;99.90;;;;;;4934428;29;20617;-78
2023/06/25 03:45:57;;;;;;;11.43;9.93;;;12.30;99.90;;;;;;4934522;29;20239;-78
2023/06/25 03:48:25;;;;;;;10.87;9.50;;;12.30;99.90;;;;;;4934707;29;20284;-77
2023/06/25 03:50:53;;;;;;;11.07;9.70;;;12.30;99.90;;;;;;4934690;29;20225;-76
2023/06/25 03:53:22;;;;;;;12.10;9.87;;;12.30;99.90;;;;;;4933950;29;20244;-78
2023/06/25 03:55:50;;;;;;;11.47;10.10;;;12.30;99.90;;;;;;4934706;29;20267;-80
2023/06/25 03:58:19;;;;;;;10.73;9.63;;;12.30;99.90;;;;;;4935144;29;20212;-77
2023/06/25 04:00:48;;;;;;;11.33;9.63;;;12.20;99.90;;;;;;4938017;29;20647;-78
2023/06/25 04:03:16;;;;;;;10.60;9.47;;;12.30;99.90;;;;;;4937446;29;20667;-77
2023/06/25 04:05:45;;;;;;;10.60;9.50;;;12.30;99.90;;;;;;4938176;29;20283;-76
2023/06/25 04:08:13;;;;;;;10.43;9.43;;;12.30;99.90;;;;;;4937875;29;20278;-76
2023/06/25 04:10:41;;;;;;;11.40;9.43;;;12.40;99.90;;;;;;4938827;29;20244;-76
2023/06/25 04:13:09;;;;;;;11.97;10.60;;;12.40;99.90;;;;;;4942545;29;20710;-79
2023/06/25 04:15:39;;;;;;;13.30;10.90;;;12.50;99.90;;;;;;4943089;29;20200;-75
2023/06/25 04:18:07;;;;;;;12.00;10.70;;;12.50;99.90;;;;;;4945203;29;20894;-74
2023/06/25 04:20:35;;;;;;;11.30;9.97;;;12.60;99.90;;;;;;4948742;28;20208;-75
2023/06/25 04:23:03;;;;;;;11.53;10.43;;;12.70;99.90;;;;;;4946271;28;20227;-76
2023/06/25 04:25:32;;;;;;;11.53;10.00;;;12.80;99.90;;;;;;4947702;28;20211;-75
2023/06/25 04:28:00;;;;;;;13.27;9.90;;;12.90;99.90;;;;;;4948380;28;20291;-75
2023/06/25 04:30:28;;;;;;;11.10;10.00;;;13.00;99.90;;;;;;4954843;28;20257;-79
2023/06/25 04:32:58;;;;;;;10.77;9.73;;;13.10;99.90;;;;;;4958285;28;20223;-80
2023/06/25 04:35:26;;;;;;;13.13;9.73;;;13.20;99.90;;;;;;4956627;28;20235;-76
2023/06/25 04:37:57;;;;;;;11.00;9.90;;;13.20;99.90;;;;;;4960036;28;20204;-77
2023/06/25 04:40:25;;;;;;;13.53;10.10;;;13.30;99.90;;;;;;4937652;29;20212;-76
2023/06/25 04:42:54;;;;;;;11.57;10.47;;;13.40;99.90;;;;;;4937339;29;20295;-78
2023/06/25 04:45:22;;;;;;;12.83;10.23;;;13.40;99.90;;;;;;4937184;29;20220;-75
2023/06/25 04:47:50;;;;;;;11.47;10.23;;;13.40;99.90;;;;;;4952758;29;20216;-77
2023/06/25 04:50:19;;;;;;;13.27;10.90;;;13.50;99.90;;;;;;4957098;28;20211;-78
2023/06/25 04:52:47;;;;;;;12.23;10.93;;;13.60;99.90;;;;;;4956235;28;20231;-76
2023/06/25 04:55:15;;;;;;;13.47;11.13;;;13.70;99.90;;;;;;4947545;28;20268;-78
2023/06/25 04:57:44;;;;;;;12.60;11.30;;;13.70;99.90;;;;;;4937767;29;20251;-80
2023/06/25 05:00:13;;;;;;;13.00;11.43;;;13.80;99.90;;;;;;4936892;29;20244;-75
2023/06/25 05:02:41;;;;;;;12.70;11.27;;;13.90;99.90;;;;;;4936874;29;20264;-76
2023/06/25 05:05:09;;;;;;;12.00;10.70;;;14.00;99.90;;;;;;4937004;29;20220;-75
2023/06/25 05:07:39;;;;;;;12.47;11.17;;;14.00;99.90;;;;;;4937324;29;20247;-80
2023/06/25 05:10:07;;;;;;;12.77;10.67;;;14.10;99.90;;;;;;4940753;29;20236;-75
2023/06/25 05:12:36;;;;;;;11.47;10.00;;;14.20;99.90;;;;;;4936026;29;20233;-75
2023/06/25 05:15:04;;;;;;;12.67;10.70;;;14.30;99.90;;;;;;4937003;29;20216;-73
2023/06/25 05:17:33;;;;;;;11.50;10.30;;;14.30;99.90;;;;;;4936171;29;20710;-75
2023/06/25 05:20:01;;;;;;;11.73;10.53;;;14.40;99.90;;;;;;4936691;29;20208;-79
2023/06/25 05:22:29;;;;;;;10.37;9.17;;;14.50;99.90;;;;;;4936459;29;20208;-76
2023/06/25 05:24:58;;;;;;;10.30;9.30;;;14.60;99.90;;;;;;4936656;29;20308;-74
2023/06/25 05:27:26;;;;;;;10.37;9.27;;;14.80;99.90;;;;;;4970833;28;20261;-74
2023/06/25 05:29:54;;;;;;;11.77;10.20;;;14.90;99.90;;;;;;4975158;28;20253;-74
2023/06/25 05:32:22;;;;;;;9.67;8.63;;;15.00;99.90;;;;;;4974333;28;20246;-76
2023/06/25 05:34:50;;;;;;;12.93;9.23;;;15.00;99.90;;;;;;4951147;28;20219;-76
2023/06/25 05:37:19;;;;;;;14.13;9.93;;;15.20;99.90;;;;;;4949808;29;20212;-75
2023/06/25 05:39:47;;;;;;;11.03;9.80;;;15.30;99.90;;;;;;4947219;29;20212;-75
2023/06/25 05:42:16;;;;;;;11.60;10.40;;;15.40;99.90;;;;;;4945191;29;20204;-77
2023/06/25 05:44:44;;;;;;;10.50;8.90;;;15.50;99.90;;;;;;4937031;29;20220;-76
2023/06/25 05:47:12;;;;;;;12.10;9.97;;;15.70;99.90;;;;;;4955881;28;20286;-76
2023/06/25 05:49:40;;;;;;;10.90;9.20;;;15.90;99.90;;;;;;4950557;28;20272;-77
2023/06/25 05:52:09;;;;;;;10.20;8.97;;;16.20;99.90;;;;;;4935975;29;20835;-75
2023/06/25 05:54:37;;;;;;;9.83;8.83;;;16.70;99.90;;;;;;4935603;29;20244;-75
2023/06/25 05:57:05;;;;;;;9.43;8.47;;;17.60;99.90;;;;;;4936054;29;20212;-74
2023/06/25 05:59:35;;;;;;;9.30;8.30;;;19.00;99.90;;;;;;4935851;29;20216;-76
2023/06/25 06:02:03;;;;;;;9.00;8.10;;;20.00;99.90;;;;;;4935829;29;20300;-77
2023/06/25 06:04:31;;;;;;;8.30;7.43;;;21.00;99.90;;;;;;4936241;29;20283;-77
2023/06/25 06:07:00;;;;;;;10.33;7.93;;;22.30;99.90;;;;;;4935321;29;20673;-77
2023/06/25 06:09:29;;;;;;;8.67;7.77;;;23.60;98.70;;;;;;4935436;29;20717;-76
2023/06/25 06:11:57;;;;;;;10.23;7.83;;;24.70;95.10;;;;;;4936310;29;20629;-78
2023/06/25 06:14:26;;;;;;;9.07;8.17;;;25.30;92.20;;;;;;4937718;29;20227;-78
2023/06/25 06:16:56;;;;;;;8.40;7.60;;;25.10;92.50;;;;;;4935789;29;20699;-77
2023/06/25 06:19:24;;;;;;;8.73;7.53;;;25.60;89.60;;;;;;4939010;29;20212;-79
2023/06/25 06:21:52;;;;;;;10.10;8.23;;;26.20;88.00;;;;;;4935675;29;20223;-79
2023/06/25 06:24:20;;;;;;;10.43;8.10;;;26.30;84.70;;;;;;4942657;28;20536;-78
2023/06/25 06:26:50;;;;;;;8.90;7.25;;;26.40;83.60;;;;;;4974169;28;20258;-78
2023/06/25 06:29:19;;;;;;;8.98;6.95;;;26.90;81.10;;;;;;4973808;28;20242;-78
2023/06/25 06:31:47;;;;;;;7.38;6.65;;;26.90;78.10;;;;;;4959484;28;20212;-79
2023/06/25 06:34:16;;;;;;;7.90;7.18;;;27.40;73.90;;;;;;4935282;29;20730;-78
2023/06/25 06:36:44;;;;;;;7.25;6.55;;;26.80;72.10;;;;;;4935182;29;20323;-79
2023/06/25 06:39:13;;;;;;;7.47;6.78;;;26.90;75.10;;;;;;4935112;29;20222;-79
2023/06/25 06:41:41;;;;;;;7.72;6.68;;;26.80;71.90;;;;;;4936991;28;20243;-78
2023/06/25 06:44:14;;;;;;;7.72;6.68;;;27.60;67.50;;;;;;4961495;28;20241;-78
2023/06/25 06:46:43;;;;;;;7.65;6.85;;;27.90;66.10;;;;;;4954072;28;20693;-79
2023/06/25 06:49:12;;;;;;;7.68;6.78;;;28.30;64.00;;;;;;4953647;28;20674;-79
2023/06/25 06:51:41;;;;;;;7.97;6.55;;;28.70;59.60;;;;;;4944253;28;20215;-77
2023/06/25 06:54:10;;;;;;;7.13;6.43;;;27.90;60.10;;;;;;4935598;29;20272;-78
2023/06/25 06:56:38;;;;;;;8.30;7.05;;;28.80;60.90;;;;;;4935167;29;20254;-79
2023/06/25 06:59:06;;;;;;;9.95;6.60;;;28.20;59.80;;;;;;4941167;29;20649;-77
2023/06/25 07:01:34;;;;;;;7.07;6.38;;;27.90;61.40;;;;;;4953738;28;20298;-80
2023/06/25 07:04:03;;;;;;;7.20;6.50;;;28.20;59.10;;;;;;4953250;29;20224;-79
2023/06/25 07:06:31;;;;;;;7.50;6.28;;;28.40;58.00;;;;;;4940996;28;20212;-79
2023/06/25 07:09:01;;;;;;;7.13;6.40;;;28.50;59.10;;;;;;4950038;28;20254;-79
2023/06/25 07:11:29;;;;;;;6.88;6.22;;;28.40;58.20;;;;;;4934496;29;20287;-79
2023/06/25 07:13:57;;;;;;;7.30;6.60;;;28.60;57.40;;;;;;4943657;28;20247;-79
2023/06/25 07:16:25;;;;;;;7.53;6.72;;;28.80;56.30;;;;;;4945244;28;20258;-81
2023/06/25 07:18:53;;;;;;;6.38;5.78;;;29.30;55.10;;;;;;4954317;28;20619;-78
2023/06/25 07:21:21;;;;;;;6.63;5.93;;;28.40;53.10;;;;;;4954336;28;20566;-78
2023/06/25 07:23:49;;;;;;;5.97;5.38;;;27.90;56.00;;;;;;4961166;28;20325;-79
2023/06/25 07:26:19;;;;;;;10.32;6.40;;;28.80;55.70;;;;;;4935118;29;20619;-79
2023/06/25 07:28:47;;;;;;;6.55;5.95;;;29.70;53.80;;;;;;4934688;29;20267;-79
2023/06/25 07:31:15;;;;;;;6.68;5.90;;;30.20;54.40;;;;;;4934387;29;20201;-80
2023/06/25 07:33:43;;;;;;;6.15;5.50;;;31.00;51.30;;;;;;4941253;29;20208;-79
2023/06/25 07:36:12;;;;;;;6.70;5.93;;;30.60;48.90;;;;;;4938699;29;20216;-80
2023/06/25 07:38:40;;;;;;;5.95;5.35;;;29.70;49.90;;;;;;4966266;28;20218;-83
2023/06/25 07:41:08;;;;;;;5.85;5.07;;;30.00;48.10;;;;;;4976709;28;20214;-80
2023/06/25 07:43:37;;;;;;;6.53;5.15;;;29.60;50.30;;;;;;4951298;28;20234;-79
2023/06/25 07:46:05;;;;;;;5.70;5.18;;;30.20;49.20;;;;;;4937955;29;20646;-79
2023/06/25 07:48:34;;;;;;;5.80;5.18;;;30.90;49.20;;;;;;4938036;29;20211;-82
2023/06/25 07:51:02;;;;;;;5.75;5.22;;;32.20;46.60;;;;;;4951522;29;20310;-81
2023/06/25 07:53:30;;;;;;;8.07;5.07;;;31.90;46.60;;;;;;4947858;28;20640;-80
2023/06/25 07:55:58;;;;;;;6.50;5.50;;;31.60;46.30;;;;;;4937967;29;20213;-79
2023/06/25 07:58:31;;;;;;;6.45;5.38;;;31.90;44.20;;;;;;4943532;28;20203;-79
2023/06/25 08:01:00;;;;;;;6.07;5.47;;;31.20;45.30;;;;;;4968198;28;20207;-82
2023/06/25 08:03:28;;;;;;;6.32;5.25;;;31.80;44.90;;;;;;4974356;28;20313;-80
2023/06/25 08:05:57;;;;;;;5.82;5.22;;;31.40;45.00;;;;;;4950192;28;20655;-80
2023/06/25 08:08:25;;;;;;;6.25;5.63;;;32.10;44.70;;;;;;4943467;28;20225;-81
2023/06/25 08:10:53;;;;;;;8.40;6.32;;;32.30;43.60;;;;;;4940572;28;20283;-81
2023/06/25 08:13:21;;;;;;;6.00;5.40;;;31.70;42.70;;;;;;4954853;28;20263;-79
2023/06/25 08:15:50;;;;;;;6.47;5.72;;;32.40;43.90;;;;;;4946607;28;20216;-81
2023/06/25 08:18:19;;;;;;;6.07;5.47;;;31.70;42.20;;;;;;4956718;28;20216;-80
2023/06/25 08:20:47;;;;;;;6.70;5.40;;;31.60;44.30;;;;;;4956188;29;20239;-78
2023/06/25 08:23:15;;;;;;;5.85;5.25;;;32.10;44.20;;;;;;4952826;28;20741;-80
2023/06/25 08:25:45;;;;;;;6.45;5.30;;;32.70;42.30;;;;;;4949061;28;20358;-82
2023/06/25 08:28:13;;;;;;;5.72;5.22;;;32.50;41.50;;;;;;4954396;28;20287;-80
2023/06/25 08:30:41;;;;;;;7.13;5.65;;;32.00;42.30;;;;;;4956227;28;20208;-80
2023/06/25 08:33:09;;;;;;;6.38;5.78;;;31.80;41.50;;;;;;4947858;28;20217;-79
2023/06/25 08:35:39;;;;;;;5.75;4.95;;;32.10;42.30;;;;;;4936785;29;20263;-81
2023/06/25 08:38:07;;;;;;;6.93;4.85;;;32.20;43.20;;;;;;4934684;28;20236;-81
2023/06/25 08:40:42;;;;;;;6.90;4.82;;;32.20;42.20;;;;;;4951699;28;20211;-82
2023/06/25 08:43:10;;;;;;;7.00;5.28;;;33.00;41.10;;;;;;4956036;28;20220;-80
2023/06/25 08:45:38;;;;;;;5.93;5.32;;;32.80;38.70;;;;;;4955586;28;20765;-81
2023/06/25 08:48:11;;;;;;;6.32;4.80;;;33.20;37.30;;;;;;4952473;28;20211;-80
2023/06/25 08:50:43;;;;;;;5.82;5.07;;;32.70;39.60;;;;;;4943729;28;20266;-80
2023/06/25 08:53:11;;;;;;;5.28;4.78;;;32.80;39.40;;;;;;4960582;28;20666;-81
2023/06/25 08:55:42;;;;;;;5.30;4.80;;;33.00;40.50;;;;;;4961255;28;20258;-84
2023/06/25 08:58:10;;;;;;;5.18;4.43;;;32.70;39.50;;;;;;4951814;28;20585;-78
2023/06/25 09:00:38;;;;;;;5.22;4.75;;;33.60;38.60;;;;;;4953707;29;20286;-81
2023/06/25 09:03:07;;;;;;;7.45;4.75;;;33.40;37.10;;;;;;4954303;29;20618;-81
2023/06/25 09:05:35;;;;;;;4.80;4.20;;;32.80;39.30;;;;;;4953385;28;20294;-79
2023/06/25 09:08:05;;;;;;;4.88;4.47;;;33.00;38.80;;;;;;4935979;29;20492;-83
2023/06/25 09:10:37;;;;;;;5.25;4.45;;;33.50;38.40;;;;;;4939490;29;20255;-81
2023/06/25 09:13:07;;;;;;;5.22;4.65;;;33.70;38.40;;;;;;4947911;28;20231;-80
2023/06/25 09:15:35;;;;;;;4.90;4.40;;;33.60;34.80;;;;;;4955261;28;20208;-81
2023/06/25 09:18:04;;;;;;;5.10;4.60;;;33.50;33.80;;;;;;4955478;28;20215;-80
2023/06/25 09:20:32;;;;;;;6.05;4.30;;;33.00;35.40;;;;;;4945202;29;20212;-80
2023/06/25 09:23:04;;;;;;;5.13;4.63;;;32.70;36.00;;;;;;4953174;28;20242;-82
2023/06/25 09:25:34;;;;;;;6.47;4.57;;;32.60;34.10;;;;;;4946432;28;20713;-81
2023/06/25 09:28:04;;;;;;;5.03;4.53;;;33.30;33.10;;;;;;4954021;28;20290;-79
2023/06/25 09:30:35;;;;;;;5.13;4.63;;;33.40;35.40;;;;;;4952275;28;20611;-81
2023/06/25 09:33:05;;;;;;;7.20;4.72;;;33.20;32.10;;;;;;4954598;28;20271;-79
2023/06/25 09:35:34;;;;;;;4.85;4.18;;;33.10;35.00;;;;;;4949205;28;20231;-79
2023/06/25 09:38:03;;;;;;;5.35;4.85;;;33.80;33.80;;;;;;4954749;28;20694;-81
2023/06/25 09:40:32;;;;;;;5.15;4.60;;;34.30;31.20;;;;;;4945446;28;20216;-80
2023/06/25 09:43:05;;;;;;;5.43;4.80;;;33.70;34.50;;;;;;4935545;29;20204;-82
2023/06/25 09:45:35;;;;;;;4.93;4.05;;;33.60;31.40;;;;;;4934929;29;20339;-82
2023/06/25 09:48:06;;;;;;;5.63;4.75;;;33.30;34.00;;;;;;4935298;29;20248;-81
2023/06/25 09:50:39;;;;;;;5.75;4.82;;;33.60;32.40;;;;;;4953704;29;20678;-81
2023/06/25 09:53:12;;;;;;;6.35;4.40;;;33.80;31.40;;;;;;4955076;28;20306;-81
2023/06/25 09:55:42;;;;;;;5.70;5.07;;;34.20;31.00;;;;;;4958160;28;20214;-81
2023/06/25 09:58:10;;;;;;;5.95;5.35;;;34.60;28.90;;;;;;4950408;28;20218;-82
2023/06/25 10:00:39;;;;;;;7.38;5.35;;;34.00;28.00;;;;;;4949728;28;20204;-79
2023/06/25 10:03:08;;;;;;;6.72;5.47;;;33.70;28.10;;;;;;4946106;29;20262;-80
2023/06/25 10:05:37;;;;;;;7.07;5.28;;;34.30;27.60;;;;;;4950367;28;20605;-80
2023/06/25 10:08:06;;;;;;;6.38;5.78;;;34.40;26.30;;;;;;4944297;29;20281;-80
2023/06/25 10:10:34;;;;;;;7.10;6.22;;;34.80;26.70;;;;;;4943206;28;20231;-82
2023/06/25 10:13:05;;;;;;;5.70;5.20;;;34.30;27.20;;;;;;4954179;28;20306;-81
2023/06/25 10:15:35;;;;;;;6.35;5.75;;;33.90;29.40;;;;;;4939532;28;20196;-81
2023/06/25 10:18:05;;;;;;;6.38;5.78;;;34.60;24.40;;;;;;4935045;29;20299;-80
2023/06/25 10:20:36;;;;;;;7.40;5.68;;;34.30;26.30;;;;;;4972181;28;20215;-81
2023/06/25 10:23:09;;;;;;;6.55;5.63;;;34.50;25.10;;;;;;4956720;28;20216;-81
2023/06/25 10:25:39;;;;;;;7.50;5.60;;;34.20;26.40;;;;;;4954226;28;20223;-83
2023/06/25 10:28:14;;;;;;;7.18;5.82;;;34.10;26.90;;;;;;4940959;28;20298;-82
2023/06/25 10:30:47;;;;;;;7.30;5.75;;;33.60;25.40;;;;;;4950540;29;20207;-80
2023/06/25 10:33:16;;;;;;;6.55;5.95;;;33.90;26.00;;;;;;4933377;29;20260;-81
2023/06/25 10:35:47;;;;;;;6.82;5.80;;;32.70;26.00;;;;;;4934991;29;20219;-80
2023/06/25 10:38:16;;;;;;;9.88;6.28;;;33.80;29.40;;;;;;4935049;29;20271;-81
2023/06/25 10:40:46;;;;;;;6.38;5.63;;;33.70;23.80;;;;;;4935022;29;20408;-82
2023/06/25 10:43:19;;;;;;;7.28;6.57;;;34.20;23.70;;;;;;4934669;29;20269;-82
2023/06/25 10:45:50;;;;;;;7.68;6.88;;;33.60;22.40;;;;;;4943665;28;20215;-82
2023/06/25 10:48:19;;;;;;;6.53;5.93;;;32.90;22.70;;;;;;4952455;28;20231;-82
2023/06/25 10:50:48;;;;;;;7.13;6.43;;;33.40;23.40;;;;;;4944872;28;20207;-79
2023/06/25 10:53:18;;;;;;;6.78;5.95;;;33.60;23.10;;;;;;4952152;29;20565;-83
2023/06/25 10:55:48;;;;;;;7.05;6.35;;;33.60;24.00;;;;;;4952855;28;20526;-81
2023/06/25 10:58:19;;;;;;;8.73;6.28;;;33.40;25.00;;;;;;4952717;28;20208;-79
2023/06/25 11:00:53;;;;;;;7.22;6.38;;;33.40;23.50;;;;;;4953397;28;20216;-81
2023/06/25 11:03:21;;;;;;;7.55;6.78;;;33.70;23.50;;;;;;4953207;28;20262;-80
2023/06/25 11:05:49;;;;;;;7.22;6.50;;;33.30;23.80;;;;;;4953458;29;20279;-81
2023/06/25 11:08:18;;;;;;;7.68;6.28;;;32.00;22.90;;;;;;4935646;29;20298;-79
2023/06/25 11:10:46;;;;;;;8.27;6.18;;;31.70;25.10;;;;;;4938912;29;20315;-83
2023/06/25 11:13:14;;;;;;;6.50;5.80;;;31.80;24.60;;;;;;4936893;28;20262;-79
2023/06/25 11:15:44;;;;;;;7.95;6.38;;;31.40;24.70;;;;;;4938213;29;20283;-80
2023/06/25 11:18:13;;;;;;;7.57;6.65;;;31.70;25.30;;;;;;4960175;28;20206;-80
2023/06/25 11:20:43;;;;;;;7.10;6.40;;;32.00;25.10;;;;;;4977152;28;20289;-81
2023/06/25 11:23:14;;;;;;;6.75;6.15;;;31.70;25.00;;;;;;4976908;28;20273;-79
2023/06/25 11:25:43;;;;;;;6.97;6.28;;;31.20;24.70;;;;;;4976766;28;20230;-80
2023/06/25 11:28:12;;;;;;;7.55;6.45;;;30.60;25.60;;;;;;4938358;28;20239;-80
2023/06/25 11:30:43;;;;;;;6.78;6.15;;;30.30;25.80;;;;;;4938482;29;20208;-81
2023/06/25 11:33:15;;;;;;;7.53;6.80;;;30.30;24.50;;;;;;4938012;29;20673;-81
2023/06/25 11:35:50;;;;;;;6.80;6.05;;;30.30;24.90;;;;;;4937967;29;20249;-79
2023/06/25 11:38:26;;;;;;;7.82;6.97;;;30.50;28.20;;;;;;4938237;29;20212;-77
2023/06/25 11:40:57;;;;;;;6.93;6.25;;;30.90;27.70;;;;;;4938530;29;20211;-82
2023/06/25 11:43:26;;;;;;;7.00;6.30;;;30.60;26.30;;;;;;4937631;28;20733;-77
2023/06/25 11:46:00;;;;;;;7.43;6.23;;;30.10;26.90;;;;;;4938500;29;20235;-73
2023/06/25 11:48:30;;;;;;;7.03;6.27;;;29.60;28.00;;;;;;4938347;29;20281;-75
2023/06/25 11:51:05;;;;;;;7.93;6.30;;;29.50;27.70;;;;;;4942138;28;20211;-74
2023/06/25 11:53:34;;;;;;;7.00;6.27;;;29.30;27.40;;;;;;4956498;28;20301;-76
2023/06/25 11:56:02;;;;;;;7.83;6.80;;;28.90;24.50;;;;;;4956138;28;20263;-77
2023/06/25 11:58:31;;;;;;;6.23;5.63;;;29.00;24.40;;;;;;4956621;28;20211;-76
2023/06/25 12:00:59;;;;;;;7.17;6.47;;;29.50;26.60;;;;;;4937569;28;20215;-77
2023/06/25 12:03:30;;;;;;;6.93;6.03;;;29.20;26.80;;;;;;4937896;29;20493;-78
2023/06/25 12:05:58;;;;;;;7.03;6.33;;;29.50;27.90;;;;;;4938410;29;20235;-79
2023/06/25 12:08:27;;;;;;;6.90;6.20;;;29.20;27.90;;;;;;4937468;29;20220;-75
2023/06/25 12:10:55;;;;;;;7.43;6.13;;;29.20;29.10;;;;;;4952282;28;20234;-76
2023/06/25 12:13:23;;;;;;;6.60;5.90;;;29.20;28.50;;;;;;4976058;28;20207;-79
2023/06/25 12:15:51;;;;;;;6.13;5.53;;;29.20;26.80;;;;;;4976078;28;20203;-75
2023/06/25 12:18:21;;;;;;;6.40;5.80;;;29.50;24.70;;;;;;4952389;28;20212;-77
2023/06/25 12:20:51;;;;;;;6.77;5.60;;;29.30;23.50;;;;;;4937465;29;20737;-75
2023/06/25 12:23:19;;;;;;;7.10;5.70;;;29.00;24.40;;;;;;4937298;29;20243;-77
2023/06/25 12:25:47;;;;;;;6.60;5.63;;;29.40;25.20;;;;;;4937134;29;20666;-76
2023/06/25 12:28:15;;;;;;;8.77;5.40;;;29.50;25.90;;;;;;4935383;28;20251;-78
2023/06/25 12:30:43;;;;;;;6.37;5.63;;;29.80;24.20;;;;;;4949455;29;20641;-73
2023/06/25 12:33:11;;;;;;;7.07;6.10;;;29.60;23.40;;;;;;4949363;28;20340;-76
2023/06/25 12:35:39;;;;;;;6.93;5.70;;;29.80;26.70;;;;;;4936457;29;20738;-76
2023/06/25 12:38:09;;;;;;;7.00;5.73;;;29.70;25.20;;;;;;4937279;29;20208;-77
2023/06/25 12:40:37;;;;;;;7.57;5.57;;;29.50;26.70;;;;;;4937223;29;20239;-77
2023/06/25 12:43:06;;;;;;;6.80;6.13;;;29.60;27.40;;;;;;4936960;29;20291;-77
2023/06/25 12:45:34;;;;;;;6.40;5.40;;;29.50;26.20;;;;;;4936116;29;20236;-77
2023/06/25 12:48:02;;;;;;;7.47;6.37;;;29.20;26.80;;;;;;4937017;29;20307;-79
2023/06/25 12:50:30;;;;;;;7.43;5.87;;;28.90;26.40;;;;;;4936971;29;20307;-77